sensor_id;sensor_type;location;lat;lon;timestamp;temperature;humidity
75799;DHT22;70933;44.692;37.776;2023-08-21T00:00:31;28.49;23.17
75799;DHT22;70933;44.692;37.776;2023-08-21T00:01:33;28.48;23.00
75799;DHT22;70933;44.692;37.776;2023-08-21T00:02:34;28.48;22.84
75799;DHT22;70933;44.692;37.776;2023-08-21T00:03:36;28.48;22.70
75799;DHT22;70933;44.692;37.776;2023-08-21T00:04:37;28.47;23.60
75799;DHT22;70933;44.692;37.776;2023-08-21T00:05:39;28.48;24.48
75799;DHT22;70933;44.692;37.776;2023-08-21T00:06:40;28.49;25.71
75799;DHT22;70933;44.692;37.776;2023-08-21T00:07:42;28.50;24.92
75799;DHT22;70933;44.692;37.776;2023-08-21T00:08:44;28.52;24.63
75799;DHT22;70933;44.692;37.776;2023-08-21T00:09:46;28.49;24.30
75799;DHT22;70933;44.692;37.776;2023-08-21T00:10:47;28.49;24.04
75799;DHT22;70933;44.692;37.776;2023-08-21T00:11:49;28.49;23.84
75799;DHT22;70933;44.692;37.776;2023-08-21T00:12:50;28.49;23.61
75799;DHT22;70933;44.692;37.776;2023-08-21T00:13:52;28.48;23.40
75799;DHT22;70933;44.692;37.776;2023-08-21T00:14:53;28.49;23.20
75799;DHT22;70933;44.692;37.776;2023-08-21T00:15:55;28.48;23.10
75799;DHT22;70933;44.692;37.776;2023-08-21T00:16:56;28.48;23.01
75799;DHT22;70933;44.692;37.776;2023-08-21T00:17:58;28.47;23.69
75799;DHT22;70933;44.692;37.776;2023-08-21T00:18:59;28.49;25.07
75799;DHT22;70933;44.692;37.776;2023-08-21T00:20:01;28.52;27.06
75799;DHT22;70933;44.692;37.776;2023-08-21T00:21:03;28.54;26.00
75799;DHT22;70933;44.692;37.776;2023-08-21T00:22:05;28.54;25.75
75799;DHT22;70933;44.692;37.776;2023-08-21T00:23:07;28.55;25.32
75799;DHT22;70933;44.692;37.776;2023-08-21T00:24:09;28.55;24.94
75799;DHT22;70933;44.692;37.776;2023-08-21T00:25:11;28.56;24.66
75799;DHT22;70933;44.692;37.776;2023-08-21T00:26:12;28.54;24.42
75799;DHT22;70933;44.692;37.776;2023-08-21T00:27:14;28.53;24.24
75799;DHT22;70933;44.692;37.776;2023-08-21T00:28:16;28.53;24.04
75799;DHT22;70933;44.692;37.776;2023-08-21T00:29:18;28.53;23.82
75799;DHT22;70933;44.692;37.776;2023-08-21T00:30:19;28.50;23.64
75799;DHT22;70933;44.692;37.776;2023-08-21T00:31:21;28.50;23.86
75799;DHT22;70933;44.692;37.776;2023-08-21T00:32:22;28.52;25.05
75799;DHT22;70933;44.692;37.776;2023-08-21T00:33:24;28.53;25.81
75799;DHT22;70933;44.692;37.776;2023-08-21T00:34:25;28.54;26.09
75799;DHT22;70933;44.692;37.776;2023-08-21T00:35:27;28.55;25.55
75799;DHT22;70933;44.692;37.776;2023-08-21T00:36:28;28.56;25.22
75799;DHT22;70933;44.692;37.776;2023-08-21T00:37:30;28.56;24.88
75799;DHT22;70933;44.692;37.776;2023-08-21T00:38:31;28.56;24.56
75799;DHT22;70933;44.692;37.776;2023-08-21T00:39:33;28.56;24.30
75799;DHT22;70933;44.692;37.776;2023-08-21T00:40:35;28.56;24.04
75799;DHT22;70933;44.692;37.776;2023-08-21T00:41:36;28.55;23.81
75799;DHT22;70933;44.692;37.776;2023-08-21T00:42:38;28.54;23.66
75799;DHT22;70933;44.692;37.776;2023-08-21T00:43:39;28.54;23.47
75799;DHT22;70933;44.692;37.776;2023-08-21T00:44:41;28.54;23.40
75799;DHT22;70933;44.692;37.776;2023-08-21T00:45:44;28.53;24.05
75799;DHT22;70933;44.692;37.776;2023-08-21T00:46:46;28.54;24.85
75799;DHT22;70933;44.692;37.776;2023-08-21T00:47:50;28.56;26.44
75799;DHT22;70933;44.692;37.776;2023-08-21T00:48:53;28.57;25.53
75799;DHT22;70933;44.692;37.776;2023-08-21T00:49:55;28.57;25.28
75799;DHT22;70933;44.692;37.776;2023-08-21T00:50:57;28.58;24.98
75799;DHT22;70933;44.692;37.776;2023-08-21T00:51:59;28.56;24.61
75799;DHT22;70933;44.692;37.776;2023-08-21T00:53:01;28.56;24.37
75799;DHT22;70933;44.692;37.776;2023-08-21T00:54:04;28.56;24.15
75799;DHT22;70933;44.692;37.776;2023-08-21T00:55:07;28.56;23.91
75799;DHT22;70933;44.692;37.776;2023-08-21T00:56:09;28.56;23.68
75799;DHT22;70933;44.692;37.776;2023-08-21T00:57:11;28.56;23.46
75799;DHT22;70933;44.692;37.776;2023-08-21T00:58:13;28.55;23.37
75799;DHT22;70933;44.692;37.776;2023-08-21T00:59:15;28.54;23.21
75799;DHT22;70933;44.692;37.776;2023-08-21T01:00:16;28.54;24.01
75799;DHT22;70933;44.692;37.776;2023-08-21T01:01:20;28.55;25.20
75799;DHT22;70933;44.692;37.776;2023-08-21T01:02:25;28.56;26.03
75799;DHT22;70933;44.692;37.776;2023-08-21T01:03:26;28.56;25.35
75799;DHT22;70933;44.692;37.776;2023-08-21T01:04:28;28.58;25.05
75799;DHT22;70933;44.692;37.776;2023-08-21T01:05:30;28.56;24.69
75799;DHT22;70933;44.692;37.776;2023-08-21T01:06:31;28.56;24.53
75799;DHT22;70933;44.692;37.776;2023-08-21T01:07:38;28.56;24.26
75799;DHT22;70933;44.692;37.776;2023-08-21T01:10:56;28.55;23.62
75799;DHT22;70933;44.692;37.776;2023-08-21T01:13:40;28.55;24.16
75799;DHT22;70933;44.692;37.776;2023-08-21T01:15:00;28.56;25.67
75799;DHT22;70933;44.692;37.776;2023-08-21T01:16:07;28.57;25.99
75799;DHT22;70933;44.692;37.776;2023-08-21T01:17:09;28.57;25.33
75799;DHT22;70933;44.692;37.776;2023-08-21T01:18:15;28.56;24.95
75799;DHT22;70933;44.692;37.776;2023-08-21T01:19:26;28.56;24.63
75799;DHT22;70933;44.692;37.776;2023-08-21T01:20:32;28.56;24.35
75799;DHT22;70933;44.692;37.776;2023-08-21T01:21:33;28.56;24.10
75799;DHT22;70933;44.692;37.776;2023-08-21T01:22:40;28.55;23.92
75799;DHT22;70933;44.692;37.776;2023-08-21T01:23:42;28.53;23.72
75799;DHT22;70933;44.692;37.776;2023-08-21T01:24:44;28.54;23.75
75799;DHT22;70933;44.692;37.776;2023-08-21T01:25:46;28.54;24.77
75799;DHT22;70933;44.692;37.776;2023-08-21T01:26:47;28.54;25.73
75799;DHT22;70933;44.692;37.776;2023-08-21T01:27:50;28.56;26.49
75799;DHT22;70933;44.692;37.776;2023-08-21T01:28:51;28.57;25.58
75799;DHT22;70933;44.692;37.776;2023-08-21T01:29:53;28.57;25.27
75799;DHT22;70933;44.692;37.776;2023-08-21T01:31:09;28.56;24.94
75799;DHT22;70933;44.692;37.776;2023-08-21T01:32:21;28.57;24.54
75799;DHT22;70933;44.692;37.776;2023-08-21T01:33:26;28.54;24.22
75799;DHT22;70933;44.692;37.776;2023-08-21T01:34:31;28.56;23.98
75799;DHT22;70933;44.692;37.776;2023-08-21T01:35:35;28.54;23.76
75799;DHT22;70933;44.692;37.776;2023-08-21T01:36:37;28.53;23.63
75799;DHT22;70933;44.692;37.776;2023-08-21T01:37:42;28.53;23.50
75799;DHT22;70933;44.692;37.776;2023-08-21T01:38:44;28.53;24.33
75799;DHT22;70933;44.692;37.776;2023-08-21T01:39:47;28.53;25.43
75799;DHT22;70933;44.692;37.776;2023-08-21T01:40:48;28.55;26.36
75799;DHT22;70933;44.692;37.776;2023-08-21T01:41:50;28.55;25.59
75799;DHT22;70933;44.692;37.776;2023-08-21T01:42:55;28.56;25.24
75799;DHT22;70933;44.692;37.776;2023-08-21T01:43:56;28.56;24.87
75799;DHT22;70933;44.692;37.776;2023-08-21T01:44:58;28.56;24.56
75799;DHT22;70933;44.692;37.776;2023-08-21T01:46:01;28.55;24.27
75799;DHT22;70933;44.692;37.776;2023-08-21T01:47:03;28.54;24.04
75799;DHT22;70933;44.692;37.776;2023-08-21T01:48:05;28.55;23.78
75799;DHT22;70933;44.692;37.776;2023-08-21T01:49:06;28.53;23.62
75799;DHT22;70933;44.692;37.776;2023-08-21T01:50:08;28.52;23.36
75799;DHT22;70933;44.692;37.776;2023-08-21T01:51:10;28.52;23.16
75799;DHT22;70933;44.692;37.776;2023-08-21T01:52:11;28.50;23.66
75799;DHT22;70933;44.692;37.776;2023-08-21T01:53:12;28.53;24.56
75799;DHT22;70933;44.692;37.776;2023-08-21T01:54:14;28.55;25.54
75799;DHT22;70933;44.692;37.776;2023-08-21T01:55:15;28.55;25.57
75799;DHT22;70933;44.692;37.776;2023-08-21T01:56:17;28.56;25.07
75799;DHT22;70933;44.692;37.776;2023-08-21T01:57:19;28.57;24.69
75799;DHT22;70933;44.692;37.776;2023-08-21T01:58:20;28.56;24.34
75799;DHT22;70933;44.692;37.776;2023-08-21T01:59:23;28.54;24.04
75799;DHT22;70933;44.692;37.776;2023-08-21T02:00:25;28.54;23.76
75799;DHT22;70933;44.692;37.776;2023-08-21T02:01:26;28.55;23.58
75799;DHT22;70933;44.692;37.776;2023-08-21T02:02:28;28.55;23.37
75799;DHT22;70933;44.692;37.776;2023-08-21T02:03:30;28.53;23.24
75799;DHT22;70933;44.692;37.776;2023-08-21T02:04:31;28.53;23.17
75799;DHT22;70933;44.692;37.776;2023-08-21T02:05:38;28.53;23.95
75799;DHT22;70933;44.692;37.776;2023-08-21T02:06:41;28.55;25.07
75799;DHT22;70933;44.692;37.776;2023-08-21T02:07:42;28.56;25.96
75799;DHT22;70933;44.692;37.776;2023-08-21T02:08:44;28.57;25.15
75799;DHT22;70933;44.692;37.776;2023-08-21T02:09:46;28.57;24.87
75799;DHT22;70933;44.692;37.776;2023-08-21T02:10:50;28.57;24.49
75799;DHT22;70933;44.692;37.776;2023-08-21T02:11:52;28.57;24.21
75799;DHT22;70933;44.692;37.776;2023-08-21T02:12:54;28.56;23.94
75799;DHT22;70933;44.692;37.776;2023-08-21T02:13:55;28.55;23.71
75799;DHT22;70933;44.692;37.776;2023-08-21T02:14:57;28.54;23.44
75799;DHT22;70933;44.692;37.776;2023-08-21T02:15:58;28.54;23.27
75799;DHT22;70933;44.692;37.776;2023-08-21T02:17:21;28.54;23.03
75799;DHT22;70933;44.692;37.776;2023-08-21T02:18:22;28.53;22.85
75799;DHT22;70933;44.692;37.776;2023-08-21T02:19:23;28.52;22.68
75799;DHT22;70933;44.692;37.776;2023-08-21T02:20:25;28.52;22.55
75799;DHT22;70933;44.692;37.776;2023-08-21T02:21:27;28.50;22.37
75799;DHT22;70933;44.692;37.776;2023-08-21T02:22:28;28.50;22.24
75799;DHT22;70933;44.692;37.776;2023-08-21T02:23:30;28.49;23.00
75799;DHT22;70933;44.692;37.776;2023-08-21T02:24:31;28.52;24.07
75799;DHT22;70933;44.692;37.776;2023-08-21T02:25:33;28.54;24.93
75799;DHT22;70933;44.692;37.776;2023-08-21T02:26:34;28.55;24.42
75799;DHT22;70933;44.692;37.776;2023-08-21T02:27:36;28.55;24.10
75799;DHT22;70933;44.692;37.776;2023-08-21T02:28:38;28.55;23.81
75799;DHT22;70933;44.692;37.776;2023-08-21T02:29:40;28.55;23.49
75799;DHT22;70933;44.692;37.776;2023-08-21T02:30:42;28.55;23.28
75799;DHT22;70933;44.692;37.776;2023-08-21T02:31:43;28.53;23.09
75799;DHT22;70933;44.692;37.776;2023-08-21T02:32:45;28.53;22.91
75799;DHT22;70933;44.692;37.776;2023-08-21T02:33:47;28.53;22.74
75799;DHT22;70933;44.692;37.776;2023-08-21T02:34:51;28.50;22.56
75799;DHT22;70933;44.692;37.776;2023-08-21T02:35:52;28.49;22.37
75799;DHT22;70933;44.692;37.776;2023-08-21T02:36:54;28.48;22.16
75799;DHT22;70933;44.692;37.776;2023-08-21T02:37:56;28.49;22.81
75799;DHT22;70933;44.692;37.776;2023-08-21T02:38:57;28.50;23.87
75799;DHT22;70933;44.692;37.776;2023-08-21T02:39:59;28.53;24.73
75799;DHT22;70933;44.692;37.776;2023-08-21T02:41:01;28.54;24.72
75799;DHT22;70933;44.692;37.776;2023-08-21T02:42:02;28.55;24.27
75799;DHT22;70933;44.692;37.776;2023-08-21T02:43:04;28.56;23.98
75799;DHT22;70933;44.692;37.776;2023-08-21T02:44:06;28.53;23.67
75799;DHT22;70933;44.692;37.776;2023-08-21T02:45:08;28.55;23.42
75799;DHT22;70933;44.692;37.776;2023-08-21T02:46:09;28.53;23.12
75799;DHT22;70933;44.692;37.776;2023-08-21T02:47:11;28.52;22.93
75799;DHT22;70933;44.692;37.776;2023-08-21T02:48:12;28.50;22.67
75799;DHT22;70933;44.692;37.776;2023-08-21T02:49:14;28.50;22.46
75799;DHT22;70933;44.692;37.776;2023-08-21T02:50:15;28.50;22.31
75799;DHT22;70933;44.692;37.776;2023-08-21T02:51:17;28.49;22.14
75799;DHT22;70933;44.692;37.776;2023-08-21T02:52:19;28.48;21.92
75799;DHT22;70933;44.692;37.776;2023-08-21T02:53:22;28.48;21.79
75799;DHT22;70933;44.692;37.776;2023-08-21T02:54:24;28.48;21.66
75799;DHT22;70933;44.692;37.776;2023-08-21T02:55:26;28.46;21.54
75799;DHT22;70933;44.692;37.776;2023-08-21T02:56:27;28.46;22.10
75799;DHT22;70933;44.692;37.776;2023-08-21T02:57:30;28.47;23.31
75799;DHT22;70933;44.692;37.776;2023-08-21T02:58:32;28.48;24.27
75799;DHT22;70933;44.692;37.776;2023-08-21T02:59:34;28.49;24.04
75799;DHT22;70933;44.692;37.776;2023-08-21T03:00:36;28.52;23.73
75799;DHT22;70933;44.692;37.776;2023-08-21T03:01:37;28.49;23.42
75799;DHT22;70933;44.692;37.776;2023-08-21T03:02:39;28.48;23.21
75799;DHT22;70933;44.692;37.776;2023-08-21T03:03:44;28.48;22.92
75799;DHT22;70933;44.692;37.776;2023-08-21T03:04:45;28.47;22.75
75799;DHT22;70933;44.692;37.776;2023-08-21T03:05:47;28.48;22.53
75799;DHT22;70933;44.692;37.776;2023-08-21T03:06:49;28.47;22.39
75799;DHT22;70933;44.692;37.776;2023-08-21T03:07:51;28.47;22.28
75799;DHT22;70933;44.692;37.776;2023-08-21T03:08:52;28.45;22.10
75799;DHT22;70933;44.692;37.776;2023-08-21T03:09:54;28.44;21.95
75799;DHT22;70933;44.692;37.776;2023-08-21T03:10:55;28.46;21.76
75799;DHT22;70933;44.692;37.776;2023-08-21T03:11:57;28.45;21.66
75799;DHT22;70933;44.692;37.776;2023-08-21T03:12:58;28.45;21.46
75799;DHT22;70933;44.692;37.776;2023-08-21T03:13:59;28.43;21.44
75799;DHT22;70933;44.692;37.776;2023-08-21T03:15:01;28.44;22.21
75799;DHT22;70933;44.692;37.776;2023-08-21T03:16:06;28.45;23.40
75799;DHT22;70933;44.692;37.776;2023-08-21T03:17:08;28.46;24.31
75799;DHT22;70933;44.692;37.776;2023-08-21T03:18:09;28.47;23.72
75799;DHT22;70933;44.692;37.776;2023-08-21T03:19:11;28.46;23.42
75799;DHT22;70933;44.692;37.776;2023-08-21T03:20:12;28.48;23.17
75799;DHT22;70933;44.692;37.776;2023-08-21T03:21:14;28.47;22.88
75799;DHT22;70933;44.692;37.776;2023-08-21T03:22:16;28.46;22.65
75799;DHT22;70933;44.692;37.776;2023-08-21T03:23:18;28.45;22.48
75799;DHT22;70933;44.692;37.776;2023-08-21T03:24:19;28.45;22.25
75799;DHT22;70933;44.692;37.776;2023-08-21T03:25:21;28.45;22.15
75799;DHT22;70933;44.692;37.776;2023-08-21T03:26:23;28.44;22.04
75799;DHT22;70933;44.692;37.776;2023-08-21T03:27:25;28.43;21.93
75799;DHT22;70933;44.692;37.776;2023-08-21T03:28:27;28.44;21.73
75799;DHT22;70933;44.692;37.776;2023-08-21T03:29:28;28.43;21.62
75799;DHT22;70933;44.692;37.776;2023-08-21T03:30:30;28.43;21.46
75799;DHT22;70933;44.692;37.776;2023-08-21T03:31:31;28.42;21.42
75799;DHT22;70933;44.692;37.776;2023-08-21T03:32:33;28.42;21.24
75799;DHT22;70933;44.692;37.776;2023-08-21T03:33:35;28.42;21.89
75799;DHT22;70933;44.692;37.776;2023-08-21T03:34:36;28.43;23.01
75799;DHT22;70933;44.692;37.776;2023-08-21T03:35:38;28.44;24.09
75799;DHT22;70933;44.692;37.776;2023-08-21T03:36:39;28.46;23.93
75799;DHT22;70933;44.692;37.776;2023-08-21T03:37:41;28.46;23.62
75799;DHT22;70933;44.692;37.776;2023-08-21T03:38:45;28.46;23.36
75799;DHT22;70933;44.692;37.776;2023-08-21T03:39:47;28.45;23.14
75799;DHT22;70933;44.692;37.776;2023-08-21T03:40:48;28.46;22.88
75799;DHT22;70933;44.692;37.776;2023-08-21T03:41:51;28.46;22.66
75799;DHT22;70933;44.692;37.776;2023-08-21T03:42:53;28.45;22.56
75799;DHT22;70933;44.692;37.776;2023-08-21T03:43:55;28.45;22.40
75799;DHT22;70933;44.692;37.776;2023-08-21T03:44:57;28.45;22.24
75799;DHT22;70933;44.692;37.776;2023-08-21T03:45:59;28.45;22.10
75799;DHT22;70933;44.692;37.776;2023-08-21T03:47:00;28.44;21.96
75799;DHT22;70933;44.692;37.776;2023-08-21T03:48:02;28.43;21.85
75799;DHT22;70933;44.692;37.776;2023-08-21T03:49:04;28.44;21.70
75799;DHT22;70933;44.692;37.776;2023-08-21T03:50:05;28.42;21.58
75799;DHT22;70933;44.692;37.776;2023-08-21T03:51:07;28.41;21.43
75799;DHT22;70933;44.692;37.776;2023-08-21T03:52:09;28.42;21.31
75799;DHT22;70933;44.692;37.776;2023-08-21T03:53:11;28.41;21.34
75799;DHT22;70933;44.692;37.776;2023-08-21T03:54:12;28.40;21.15
75799;DHT22;70933;44.692;37.776;2023-08-21T03:55:14;28.40;21.07
75799;DHT22;70933;44.692;37.776;2023-08-21T03:56:17;28.40;21.59
75799;DHT22;70933;44.692;37.776;2023-08-21T03:57:19;28.42;22.63
75799;DHT22;70933;44.692;37.776;2023-08-21T03:58:21;28.43;23.91
75799;DHT22;70933;44.692;37.776;2023-08-21T03:59:22;28.44;23.66
75799;DHT22;70933;44.692;37.776;2023-08-21T04:00:25;28.45;23.45
75799;DHT22;70933;44.692;37.776;2023-08-21T04:01:26;28.45;23.14
75799;DHT22;70933;44.692;37.776;2023-08-21T04:02:28;28.44;22.95
75799;DHT22;70933;44.692;37.776;2023-08-21T04:03:29;28.43;22.76
75799;DHT22;70933;44.692;37.776;2023-08-21T04:04:31;28.44;22.60
75799;DHT22;70933;44.692;37.776;2023-08-21T04:05:32;28.44;22.43
75799;DHT22;70933;44.692;37.776;2023-08-21T04:06:34;28.44;22.36
75799;DHT22;70933;44.692;37.776;2023-08-21T04:07:35;28.44;22.39
75799;DHT22;70933;44.692;37.776;2023-08-21T04:08:37;28.42;22.33
75799;DHT22;70933;44.692;37.776;2023-08-21T04:09:38;28.41;22.37
75799;DHT22;70933;44.692;37.776;2023-08-21T04:10:40;28.41;22.36
75799;DHT22;70933;44.692;37.776;2023-08-21T04:11:43;28.41;22.47
75799;DHT22;70933;44.692;37.776;2023-08-21T04:12:44;28.40;22.47
75799;DHT22;70933;44.692;37.776;2023-08-21T04:13:46;28.40;22.47
75799;DHT22;70933;44.692;37.776;2023-08-21T04:14:47;28.40;22.59
75799;DHT22;70933;44.692;37.776;2023-08-21T04:15:49;28.39;22.66
75799;DHT22;70933;44.692;37.776;2023-08-21T04:16:51;28.39;22.89
75799;DHT22;70933;44.692;37.776;2023-08-21T04:17:54;28.40;22.95
75799;DHT22;70933;44.692;37.776;2023-08-21T04:18:56;28.39;23.18
75799;DHT22;70933;44.692;37.776;2023-08-21T04:19:58;28.39;23.38
75799;DHT22;70933;44.692;37.776;2023-08-21T04:21:00;28.40;23.55
75799;DHT22;70933;44.692;37.776;2023-08-21T04:22:01;28.39;23.52
75799;DHT22;70933;44.692;37.776;2023-08-21T04:23:04;28.40;23.55
75799;DHT22;70933;44.692;37.776;2023-08-21T04:24:05;28.40;23.90
75799;DHT22;70933;44.692;37.776;2023-08-21T04:25:07;28.40;24.75
75799;DHT22;70933;44.692;37.776;2023-08-21T04:26:08;28.42;26.14
75799;DHT22;70933;44.692;37.776;2023-08-21T04:27:10;28.45;26.44
75799;DHT22;70933;44.692;37.776;2023-08-21T04:28:11;28.45;25.85
75799;DHT22;70933;44.692;37.776;2023-08-21T04:29:14;28.45;25.52
75799;DHT22;70933;44.692;37.776;2023-08-21T04:30:16;28.44;25.23
75799;DHT22;70933;44.692;37.776;2023-08-21T04:31:17;28.45;24.98
75799;DHT22;70933;44.692;37.776;2023-08-21T04:32:22;28.46;24.75
75799;DHT22;70933;44.692;37.776;2023-08-21T04:33:30;28.46;24.56
75799;DHT22;70933;44.692;37.776;2023-08-21T04:34:32;28.47;24.30
75799;DHT22;70933;44.692;37.776;2023-08-21T04:35:38;28.48;24.21
75799;DHT22;70933;44.692;37.776;2023-08-21T04:36:40;28.47;24.14
75799;DHT22;70933;44.692;37.776;2023-08-21T04:37:46;28.47;23.99
75799;DHT22;70933;44.692;37.776;2023-08-21T04:38:49;28.46;23.88
75799;DHT22;70933;44.692;37.776;2023-08-21T04:39:52;28.47;24.43
75799;DHT22;70933;44.692;37.776;2023-08-21T04:40:54;28.48;25.59
75799;DHT22;70933;44.692;37.776;2023-08-21T04:41:55;28.50;26.81
75799;DHT22;70933;44.692;37.776;2023-08-21T04:42:57;28.52;25.99
75799;DHT22;70933;44.692;37.776;2023-08-21T04:43:59;28.52;26.45
75799;DHT22;70933;44.692;37.776;2023-08-21T04:45:01;28.53;26.58
75799;DHT22;70933;44.692;37.776;2023-08-21T04:46:06;28.50;26.50
75799;DHT22;70933;44.692;37.776;2023-08-21T04:47:20;28.52;26.36
75799;DHT22;70933;44.692;37.776;2023-08-21T04:48:23;28.50;26.14
75799;DHT22;70933;44.692;37.776;2023-08-21T04:49:25;28.49;26.13
75799;DHT22;70933;44.692;37.776;2023-08-21T04:50:26;28.50;26.10
75799;DHT22;70933;44.692;37.776;2023-08-21T04:51:29;28.49;26.12
75799;DHT22;70933;44.692;37.776;2023-08-21T04:52:31;28.48;25.86
75799;DHT22;70933;44.692;37.776;2023-08-21T04:53:34;28.48;25.91
75799;DHT22;70933;44.692;37.776;2023-08-21T04:54:36;28.48;25.78
75799;DHT22;70933;44.692;37.776;2023-08-21T04:55:37;28.49;25.68
75799;DHT22;70933;44.692;37.776;2023-08-21T04:56:42;28.48;25.56
75799;DHT22;70933;44.692;37.776;2023-08-21T04:57:45;28.47;25.59
75799;DHT22;70933;44.692;37.776;2023-08-21T04:58:47;28.48;25.55
75799;DHT22;70933;44.692;37.776;2023-08-21T04:59:49;28.47;25.42
75799;DHT22;70933;44.692;37.776;2023-08-21T05:00:50;28.47;25.37
75799;DHT22;70933;44.692;37.776;2023-08-21T05:01:52;28.46;25.47
75799;DHT22;70933;44.692;37.776;2023-08-21T05:02:53;28.48;26.70
75799;DHT22;70933;44.692;37.776;2023-08-21T05:03:56;28.49;27.40
75799;DHT22;70933;44.692;37.776;2023-08-21T05:04:58;28.52;28.26
75799;DHT22;70933;44.692;37.776;2023-08-21T05:06:00;28.53;27.64
75799;DHT22;70933;44.692;37.776;2023-08-21T05:07:02;28.54;27.38
75799;DHT22;70933;44.692;37.776;2023-08-21T05:08:05;28.53;27.20
75799;DHT22;70933;44.692;37.776;2023-08-21T05:09:07;28.54;26.99
75799;DHT22;70933;44.692;37.776;2023-08-21T05:10:09;28.55;26.86
75799;DHT22;70933;44.692;37.776;2023-08-21T05:11:13;28.54;26.65
75799;DHT22;70933;44.692;37.776;2023-08-21T05:12:17;28.54;26.44
75799;DHT22;70933;44.692;37.776;2023-08-21T05:13:18;28.56;26.38
75799;DHT22;70933;44.692;37.776;2023-08-21T05:14:20;28.54;26.33
75799;DHT22;70933;44.692;37.776;2023-08-21T05:15:22;28.55;26.20
75799;DHT22;70933;44.692;37.776;2023-08-21T05:16:23;28.55;26.14
75799;DHT22;70933;44.692;37.776;2023-08-21T05:17:25;28.55;26.00
75799;DHT22;70933;44.692;37.776;2023-08-21T05:18:28;28.55;25.85
75799;DHT22;70933;44.692;37.776;2023-08-21T05:19:32;28.55;27.06
75799;DHT22;70933;44.692;37.776;2023-08-21T05:20:33;28.55;26.40
75799;DHT22;70933;44.692;37.776;2023-08-21T05:21:35;28.56;26.28
75799;DHT22;70933;44.692;37.776;2023-08-21T05:22:37;28.56;26.59
75799;DHT22;70933;44.692;37.776;2023-08-21T05:23:38;28.56;26.77
75799;DHT22;70933;44.692;37.776;2023-08-21T05:24:42;28.56;27.04
75799;DHT22;70933;44.692;37.776;2023-08-21T05:25:45;28.57;27.13
75799;DHT22;70933;44.692;37.776;2023-08-21T05:26:46;28.57;26.81
75799;DHT22;70933;44.692;37.776;2023-08-21T05:27:48;28.58;27.04
75799;DHT22;70933;44.692;37.776;2023-08-21T05:28:49;28.57;26.90
75799;DHT22;70933;44.692;37.776;2023-08-21T05:29:51;28.60;26.90
75799;DHT22;70933;44.692;37.776;2023-08-21T05:30:53;28.61;28.07
75799;DHT22;70933;44.692;37.776;2023-08-21T05:31:55;28.63;29.18
75799;DHT22;70933;44.692;37.776;2023-08-21T05:33:01;28.67;30.05
75799;DHT22;70933;44.692;37.776;2023-08-21T05:34:03;28.69;30.18
75799;DHT22;70933;44.692;37.776;2023-08-21T05:35:05;28.69;29.92
75799;DHT22;70933;44.692;37.776;2023-08-21T05:36:06;28.72;29.76
75799;DHT22;70933;44.692;37.776;2023-08-21T05:37:08;28.72;29.34
75799;DHT22;70933;44.692;37.776;2023-08-21T05:38:09;28.73;29.25
75799;DHT22;70933;44.692;37.776;2023-08-21T05:39:11;28.74;29.13
75799;DHT22;70933;44.692;37.776;2023-08-21T05:40:13;28.74;28.84
75799;DHT22;70933;44.692;37.776;2023-08-21T05:41:14;28.76;28.53
75799;DHT22;70933;44.692;37.776;2023-08-21T05:42:16;28.76;28.39
75799;DHT22;70933;44.692;37.776;2023-08-21T05:43:18;28.77;28.33
75799;DHT22;70933;44.692;37.776;2023-08-21T05:44:20;28.78;28.07
75799;DHT22;70933;44.692;37.776;2023-08-21T05:45:21;28.78;28.12
75799;DHT22;70933;44.692;37.776;2023-08-21T05:46:23;28.79;28.02
75799;DHT22;70933;44.692;37.776;2023-08-21T05:47:25;28.79;27.84
75799;DHT22;70933;44.692;37.776;2023-08-21T05:48:27;28.82;27.78
75799;DHT22;70933;44.692;37.776;2023-08-21T05:49:29;28.80;27.59
75799;DHT22;70933;44.692;37.776;2023-08-21T05:50:31;28.82;27.77
75799;DHT22;70933;44.692;37.776;2023-08-21T05:51:32;28.83;28.11
75799;DHT22;70933;44.692;37.776;2023-08-21T05:52:34;28.83;28.06
75799;DHT22;70933;44.692;37.776;2023-08-21T05:53:38;28.83;28.07
75799;DHT22;70933;44.692;37.776;2023-08-21T05:54:39;28.83;28.02
75799;DHT22;70933;44.692;37.776;2023-08-21T05:55:41;28.83;27.94
75799;DHT22;70933;44.692;37.776;2023-08-21T05:56:45;28.83;28.39
75799;DHT22;70933;44.692;37.776;2023-08-21T05:57:49;28.84;28.63
75799;DHT22;70933;44.692;37.776;2023-08-21T05:58:51;28.85;31.19
75799;DHT22;70933;44.692;37.776;2023-08-21T05:59:53;28.83;28.41
75799;DHT22;70933;44.692;37.776;2023-08-21T06:00:55;28.84;28.39
75799;DHT22;70933;44.692;37.776;2023-08-21T06:01:56;28.84;27.94
75799;DHT22;70933;44.692;37.776;2023-08-21T06:02:58;28.83;27.81
75799;DHT22;70933;44.692;37.776;2023-08-21T06:04:24;28.84;27.70
75799;DHT22;70933;44.692;37.776;2023-08-21T06:05:31;28.84;27.65
75799;DHT22;70933;44.692;37.776;2023-08-21T06:06:32;28.83;27.69
75799;DHT22;70933;44.692;37.776;2023-08-21T06:07:34;28.85;27.53
75799;DHT22;70933;44.692;37.776;2023-08-21T06:08:37;28.84;27.62
75799;DHT22;70933;44.692;37.776;2023-08-21T06:09:41;28.85;27.59
75799;DHT22;70933;44.692;37.776;2023-08-21T06:10:43;28.86;27.83
75799;DHT22;70933;44.692;37.776;2023-08-21T06:11:44;28.87;27.68
75799;DHT22;70933;44.692;37.776;2023-08-21T06:12:46;28.87;27.57
75799;DHT22;70933;44.692;37.776;2023-08-21T06:13:49;28.88;27.44
75799;DHT22;70933;44.692;37.776;2023-08-21T06:14:51;28.88;27.30
75799;DHT22;70933;44.692;37.776;2023-08-21T06:15:53;28.90;27.27
75799;DHT22;70933;44.692;37.776;2023-08-21T06:16:58;28.91;27.13
75799;DHT22;70933;44.692;37.776;2023-08-21T06:18:00;28.91;26.99
75799;DHT22;70933;44.692;37.776;2023-08-21T06:19:01;28.91;26.72
75799;DHT22;70933;44.692;37.776;2023-08-21T06:20:04;28.92;26.71
75799;DHT22;70933;44.692;37.776;2023-08-21T06:21:10;28.94;26.65
75799;DHT22;70933;44.692;37.776;2023-08-21T06:22:11;28.94;26.83
75799;DHT22;70933;44.692;37.776;2023-08-21T06:23:13;28.95;26.66
75799;DHT22;70933;44.692;37.776;2023-08-21T06:24:14;28.95;26.52
75799;DHT22;70933;44.692;37.776;2023-08-21T06:25:16;28.97;26.49
75799;DHT22;70933;44.692;37.776;2023-08-21T06:26:17;28.97;26.60
75799;DHT22;70933;44.692;37.776;2023-08-21T06:27:19;28.98;26.57
75799;DHT22;70933;44.692;37.776;2023-08-21T06:28:20;28.99;26.52
75799;DHT22;70933;44.692;37.776;2023-08-21T06:29:22;28.99;26.49
75799;DHT22;70933;44.692;37.776;2023-08-21T06:30:25;29.02;26.70
75799;DHT22;70933;44.692;37.776;2023-08-21T06:31:27;29.02;27.48